Time;durP1;ratioP1;P1;durP2;ratioP2;P2;SDS_P1;SDS_P2;PMS_P1;PMS_P2;Temp;Humidity;BMP_temperature;BMP_pressure;BME280_temperature;BME280_humidity;BME280_pressure;Samples;Min_cycle;Max_cycle;Signal;HPM_P1;HPM_P2
2022/09/30 00:01:08;;;;;;;6.83;2.63;;;8.60;99.90;;;;;;5023918;28;20179;-63
2022/09/30 00:03:35;;;;;;;2.50;2.27;;;8.60;99.90;;;;;;5053156;28;20402;-63
2022/09/30 00:06:04;;;;;;;2.87;2.40;;;8.60;99.90;;;;;;5049302;28;20487;-64
2022/09/30 00:08:30;;;;;;;2.50;2.30;;;8.60;99.90;;;;;;5051692;28;20430;-62
2022/09/30 00:11:05;;;;;;;3.67;2.67;;;8.60;99.90;;;;;;5051741;28;20456;-64
2022/09/30 00:13:36;;;;;;;2.67;2.40;;;8.60;99.90;;;;;;5041449;28;20417;-62
2022/09/30 00:16:03;;;;;;;3.90;3.00;;;8.50;99.90;;;;;;5047350;28;20455;-62
2022/09/30 00:18:29;;;;;;;3.60;3.00;;;8.50;99.90;;;;;;5052275;28;20429;-63
2022/09/30 00:20:55;;;;;;;7.50;2.83;;;8.50;99.90;;;;;;5050781;28;20945;-63
2022/09/30 00:23:22;;;;;;;3.77;3.17;;;8.50;99.90;;;;;;5044806;28;20413;-63
2022/09/30 00:25:49;;;;;;;7.53;3.30;;;8.50;99.90;;;;;;5051089;28;20808;-63
2022/09/30 00:28:15;;;;;;;4.00;3.23;;;8.50;99.90;;;;;;5048083;28;20567;-63
2022/09/30 00:30:41;;;;;;;5.00;4.03;;;8.50;99.90;;;;;;5042410;28;20460;-62
2022/09/30 00:33:07;;;;;;;5.80;3.70;;;8.50;99.90;;;;;;5054211;28;20448;-62
2022/09/30 00:35:33;;;;;;;5.07;4.27;;;8.50;99.90;;;;;;5042846;28;20541;-62
2022/09/30 00:37:59;;;;;;;5.33;4.30;;;8.50;99.90;;;;;;5050886;28;20170;-62
2022/09/30 00:40:25;;;;;;;5.77;3.73;;;8.50;99.90;;;;;;5049999;28;20171;-63
2022/09/30 00:42:50;;;;;;;7.50;3.80;;;8.50;99.90;;;;;;5044377;28;20187;-63
2022/09/30 00:45:16;;;;;;;4.00;3.57;;;8.50;99.90;;;;;;5046629;28;20426;-63
2022/09/30 00:47:52;;;;;;;5.07;3.90;;;8.50;99.90;;;;;;5048491;28;20180;-63
2022/09/30 00:50:35;;;;;;;4.93;3.83;;;8.50;99.90;;;;;;5044330;28;20974;-62
2022/09/30 00:53:04;;;;;;;5.53;3.47;;;8.50;99.90;;;;;;5045745;28;20426;-63
2022/09/30 00:55:52;;;;;;;6.07;3.80;;;8.50;99.90;;;;;;5046794;28;20442;-62
2022/09/30 00:58:52;;;;;;;5.33;3.50;;;8.40;99.90;;;;;;5026382;28;20430;-62
2022/09/30 01:01:19;;;;;;;6.80;3.30;;;8.40;99.90;;;;;;5025065;28;20446;-62
2022/09/30 01:03:50;;;;;;;4.00;3.60;;;8.50;99.90;;;;;;5042555;28;20426;-63
2022/09/30 01:06:18;;;;;;;13.20;5.50;;;8.50;99.90;;;;;;5044927;28;20442;-63
2022/09/30 01:08:45;;;;;;;7.00;5.40;;;8.50;99.90;;;;;;5051024;28;20438;-63
2022/09/30 01:11:11;;;;;;;9.43;5.57;;;8.50;99.90;;;;;;5047684;28;20468;-63
2022/09/30 01:13:38;;;;;;;7.27;5.50;;;8.50;99.90;;;;;;5049616;28;20490;-62
2022/09/30 01:16:22;;;;;;;7.23;4.97;;;8.50;99.90;;;;;;5046489;28;20654;-62
2022/09/30 01:19:18;;;;;;;5.43;4.67;;;8.50;99.90;;;;;;5048277;28;20425;-63
2022/09/30 01:22:29;;;;;;;5.37;3.83;;;8.50;99.90;;;;;;5046733;28;20943;-62
2022/09/30 01:25:14;;;;;;;5.60;4.27;;;8.50;99.90;;;;;;5038591;28;20441;-63
2022/09/30 01:27:49;;;;;;;4.90;3.23;;;8.40;99.90;;;;;;5048446;28;20453;-64
2022/09/30 01:30:42;;;;;;;6.67;4.57;;;8.40;99.90;;;;;;5047982;28;20449;-62
2022/09/30 01:33:44;;;;;;;9.87;4.47;;;8.40;99.90;;;;;;5043893;28;20461;-62
2022/09/30 01:36:28;;;;;;;7.53;5.30;;;8.40;99.90;;;;;;5043065;28;20950;-62
2022/09/30 01:39:13;;;;;;;6.73;5.47;;;8.30;99.90;;;;;;5043860;28;20903;-64
2022/09/30 01:42:01;;;;;;;8.57;5.33;;;8.30;99.90;;;;;;5042382;28;20433;-62
2022/09/30 01:44:40;;;;;;;10.37;6.33;;;8.30;99.90;;;;;;5039579;28;20518;-63
2022/09/30 01:47:23;;;;;;;8.70;5.50;;;8.40;99.90;;;;;;5047766;28;20532;-63
2022/09/30 01:50:15;;;;;;;15.30;5.87;;;8.40;99.90;;;;;;5042067;28;20532;-63
2022/09/30 01:53:06;;;;;;;10.00;6.13;;;8.40;99.90;;;;;;5011948;28;20453;-63
2022/09/30 01:55:39;;;;;;;8.70;6.13;;;8.40;99.90;;;;;;5013819;28;20453;-63
2022/09/30 01:58:16;;;;;;;9.00;6.30;;;8.30;99.90;;;;;;5047359;28;20460;-63
2022/09/30 02:00:45;;;;;;;8.03;5.70;;;8.30;99.90;;;;;;5052287;28;20436;-62
2022/09/30 02:03:16;;;;;;;10.50;4.90;;;8.30;99.90;;;;;;5051835;28;20479;-63
2022/09/30 02:05:44;;;;;;;9.80;5.80;;;8.30;99.90;;;;;;5038133;28;20480;-64
2022/09/30 02:08:22;;;;;;;11.20;6.53;;;8.30;99.90;;;;;;5033382;28;20421;-62
2022/09/30 02:10:55;;;;;;;9.97;6.70;;;8.30;99.90;;;;;;5049325;28;20468;-63
2022/09/30 02:13:31;;;;;;;12.27;6.23;;;8.30;99.90;;;;;;5050591;28;20418;-63
2022/09/30 02:16:11;;;;;;;7.30;5.57;;;8.30;99.90;;;;;;5046165;28;20499;-63
2022/09/30 02:18:51;;;;;;;10.03;5.47;;;8.30;99.90;;;;;;5050289;28;20482;-63
2022/09/30 02:21:25;;;;;;;7.00;4.37;;;8.30;99.90;;;;;;5050403;28;20421;-63
2022/09/30 02:23:58;;;;;;;8.73;4.10;;;8.20;99.90;;;;;;5052434;28;20433;-62
2022/09/30 02:26:28;;;;;;;9.03;3.70;;;8.30;99.90;;;;;;5048601;28;20448;-63
2022/09/30 02:29:11;;;;;;;7.27;3.90;;;8.30;99.90;;;;;;5050722;28;20409;-63
2022/09/30 02:31:40;;;;;;;5.30;3.40;;;8.20;99.90;;;;;;5019586;28;20464;-63
2022/09/30 02:34:21;;;;;;;6.00;3.90;;;8.20;99.90;;;;;;5041395;28;20424;-63
2022/09/30 02:36:58;;;;;;;7.50;4.87;;;8.20;99.90;;;;;;5044387;28;20471;-63
2022/09/30 02:39:36;;;;;;;5.60;3.33;;;8.20;99.90;;;;;;5049513;28;20440;-63
2022/09/30 02:42:12;;;;;;;6.67;4.30;;;8.20;99.90;;;;;;5049580;28;20436;-63
2022/09/30 02:44:38;;;;;;;7.70;5.17;;;8.20;99.90;;;;;;5050082;28;20409;-63
2022/09/30 02:47:10;;;;;;;10.00;6.10;;;8.20;99.90;;;;;;5046349;28;20528;-62
2022/09/30 02:49:50;;;;;;;9.50;5.73;;;8.20;99.90;;;;;;5042606;28;20472;-63
2022/09/30 02:52:48;;;;;;;11.20;5.90;;;8.20;99.90;;;;;;5039250;28;20437;-63
2022/09/30 02:55:20;;;;;;;11.30;5.90;;;8.10;99.90;;;;;;5045159;28;20841;-62
2022/09/30 02:58:13;;;;;;;12.23;7.03;;;8.10;99.90;;;;;;5043267;28;20420;-63
2022/09/30 03:00:39;;;;;;;15.50;8.07;;;8.10;99.90;;;;;;5045453;28;20426;-64
2022/09/30 03:03:11;;;;;;;13.70;8.50;;;8.10;99.90;;;;;;5048582;28;20512;-63
2022/09/30 03:05:37;;;;;;;11.60;6.27;;;8.10;99.90;;;;;;5045358;28;20445;-63
2022/09/30 03:08:03;;;;;;;12.43;7.13;;;8.20;99.90;;;;;;5031021;28;20440;-64
2022/09/30 03:10:30;;;;;;;11.77;7.70;;;8.20;99.90;;;;;;5048668;28;20806;-62
2022/09/30 03:13:04;;;;;;;16.10;7.53;;;8.10;99.90;;;;;;5050044;28;20405;-62
2022/09/30 03:15:45;;;;;;;15.37;9.07;;;8.10;99.90;;;;;;5053726;28;20444;-62
2022/09/30 03:18:36;;;;;;;13.63;6.27;;;8.20;99.90;;;;;;5056588;28;20441;-62
2022/09/30 03:21:33;;;;;;;8.30;5.80;;;8.20;99.90;;;;;;5052000;28;20841;-63
2022/09/30 03:24:40;;;;;;;6.13;4.20;;;8.10;99.90;;;;;;5050554;28;20430;-63
2022/09/30 03:27:20;;;;;;;7.80;4.40;;;8.10;99.90;;;;;;5053297;28;20484;-64
2022/09/30 03:30:00;;;;;;;9.17;4.20;;;8.10;99.90;;;;;;5036641;28;20445;-63
2022/09/30 03:32:47;;;;;;;11.30;4.60;;;8.10;99.90;;;;;;5050064;28;20445;-62
2022/09/30 03:35:26;;;;;;;9.83;5.13;;;8.10;99.90;;;;;;5055763;28;21041;-63
2022/09/30 03:38:09;;;;;;;7.27;4.47;;;8.10;99.90;;;;;;5055844;28;20407;-63
2022/09/30 03:41:01;;;;;;;8.00;4.77;;;8.10;99.90;;;;;;5041134;28;20493;-64
2022/09/30 03:43:30;;;;;;;7.90;5.20;;;8.10;99.90;;;;;;5049831;28;20795;-63
2022/09/30 03:46:05;;;;;;;7.83;5.03;;;8.10;99.90;;;;;;5036703;28;20471;-62
2022/09/30 03:48:33;;;;;;;7.60;5.07;;;8.10;99.90;;;;;;5047677;28;20421;-63
2022/09/30 03:50:59;;;;;;;7.50;5.60;;;8.10;99.90;;;;;;5032280;28;20464;-62
2022/09/30 03:53:27;;;;;;;8.97;6.03;;;8.10;99.90;;;;;;5034231;28;20425;-59
2022/09/30 03:55:56;;;;;;;8.83;5.43;;;8.10;99.90;;;;;;5046468;28;20475;-58
2022/09/30 03:58:22;;;;;;;11.13;6.20;;;8.10;99.90;;;;;;5030800;28;22299;-53
2022/09/30 04:00:51;;;;;;;10.67;5.20;;;8.10;99.90;;;;;;5050688;28;20437;-55
2022/09/30 04:03:18;;;;;;;5.00;4.20;;;8.10;99.90;;;;;;5024847;28;20202;-58
2022/09/30 04:05:45;;;;;;;11.50;4.00;;;8.10;99.90;;;;;;5052165;28;20456;-55
2022/09/30 04:08:10;;;;;;;13.47;7.97;;;8.00;99.90;;;;;;5046725;28;20944;-56
2022/09/30 04:10:39;;;;;;;13.50;8.60;;;8.00;99.90;;;;;;5049533;28;20511;-55
2022/09/30 04:13:05;;;;;;;17.53;9.30;;;8.00;99.90;;;;;;5041466;28;20437;-56
2022/09/30 04:15:30;;;;;;;12.60;7.00;;;8.00;99.90;;;;;;5038558;28;20521;-64
2022/09/30 04:17:57;;;;;;;15.47;7.03;;;8.00;99.90;;;;;;5020780;28;20520;-64
2022/09/30 04:20:22;;;;;;;9.10;6.00;;;8.00;99.90;;;;;;5029749;28;20170;-63
2022/09/30 04:22:48;;;;;;;9.60;5.47;;;8.00;99.90;;;;;;5042818;28;20425;-65
2022/09/30 04:25:14;;;;;;;6.70;4.60;;;8.00;99.90;;;;;;5043813;28;20697;-64
2022/09/30 04:27:39;;;;;;;8.07;4.90;;;8.00;99.90;;;;;;5045206;28;20175;-65
2022/09/30 04:30:05;;;;;;;8.53;5.30;;;8.00;99.90;;;;;;5028344;28;20191;-64
2022/09/30 04:32:31;;;;;;;7.80;5.53;;;8.00;99.90;;;;;;5043800;28;20175;-65
2022/09/30 04:34:56;;;;;;;11.73;5.80;;;8.00;99.90;;;;;;5022716;28;20428;-65
2022/09/30 04:37:23;;;;;;;6.10;4.90;;;8.00;99.90;;;;;;5040099;28;20237;-64
2022/09/30 04:39:49;;;;;;;7.80;5.20;;;8.00;99.90;;;;;;5040672;28;20191;-64
2022/09/30 04:42:16;;;;;;;11.40;5.23;;;8.00;99.90;;;;;;5039581;28;20912;-63
2022/09/30 04:44:41;;;;;;;5.90;4.60;;;8.00;99.90;;;;;;5044031;28;20262;-64
2022/09/30 04:47:07;;;;;;;6.00;4.67;;;8.00;99.90;;;;;;5046502;28;20862;-64
2022/09/30 04:49:33;;;;;;;5.90;4.77;;;8.00;99.90;;;;;;5041341;28;20760;-64
2022/09/30 04:51:58;;;;;;;6.90;4.50;;;7.90;99.90;;;;;;5044884;28;20183;-64
2022/09/30 04:54:24;;;;;;;7.63;5.10;;;7.90;99.90;;;;;;5049654;28;20233;-64
2022/09/30 04:56:50;;;;;;;5.20;4.13;;;7.90;99.90;;;;;;5043443;28;20221;-63
2022/09/30 04:59:15;;;;;;;6.13;4.57;;;7.90;99.90;;;;;;5049546;28;20246;-65
2022/09/30 05:01:43;;;;;;;6.73;5.00;;;7.90;99.90;;;;;;5050162;28;20469;-65
2022/09/30 05:04:11;;;;;;;7.57;4.93;;;7.90;99.90;;;;;;5050402;28;20253;-65
2022/09/30 05:06:39;;;;;;;5.47;4.20;;;7.80;99.90;;;;;;5043667;28;20450;-65
2022/09/30 05:09:05;;;;;;;5.67;4.67;;;7.80;99.90;;;;;;5051364;28;20460;-65
2022/09/30 05:11:30;;;;;;;5.40;3.83;;;7.90;99.90;;;;;;5044921;28;20466;-64
2022/09/30 05:13:56;;;;;;;6.30;4.63;;;7.90;99.90;;;;;;5043433;28;20538;-65
2022/09/30 05:16:21;;;;;;;6.43;4.50;;;7.80;99.90;;;;;;5044391;28;20199;-65
2022/09/30 05:18:48;;;;;;;5.30;4.57;;;7.80;99.90;;;;;;5047960;28;20565;-65
2022/09/30 05:21:16;;;;;;;5.47;4.30;;;7.80;99.90;;;;;;5032350;28;20668;-64
2022/09/30 05:23:42;;;;;;;4.50;4.10;;;7.80;99.90;;;;;;5051975;28;20432;-65
2022/09/30 05:26:08;;;;;;;5.97;4.13;;;7.70;99.90;;;;;;5048069;28;20471;-66
2022/09/30 05:28:33;;;;;;;5.40;3.57;;;7.70;99.90;;;;;;5051191;28;20225;-65
2022/09/30 05:31:04;;;;;;;5.90;3.87;;;7.60;99.90;;;;;;5038537;28;20191;-65
2022/09/30 05:33:31;;;;;;;5.03;3.63;;;7.60;99.90;;;;;;5025653;28;20365;-65
2022/09/30 05:36:01;;;;;;;4.40;3.60;;;7.60;99.90;;;;;;5045208;28;20450;-65
2022/09/30 05:38:27;;;;;;;6.40;4.20;;;7.50;99.90;;;;;;5049295;28;20394;-65
2022/09/30 05:40:53;;;;;;;5.40;4.70;;;7.50;99.90;;;;;;5050524;28;20515;-65
2022/09/30 05:43:19;;;;;;;4.77;3.77;;;7.50;99.90;;;;;;5039112;28;20430;-65
2022/09/30 05:45:54;;;;;;;5.60;3.90;;;7.50;99.90;;;;;;5036825;28;20205;-65
2022/09/30 05:48:20;;;;;;;3.90;3.50;;;7.50;99.90;;;;;;5050178;28;20664;-65
2022/09/30 05:50:49;;;;;;;3.63;3.30;;;7.40;99.90;;;;;;5049690;28;20481;-65
2022/09/30 05:53:16;;;;;;;3.93;3.23;;;7.40;99.90;;;;;;5049640;28;20589;-65
2022/09/30 05:55:45;;;;;;;7.30;3.73;;;7.40;99.90;;;;;;5040256;28;20807;-65
2022/09/30 05:58:11;;;;;;;4.40;3.50;;;7.40;99.90;;;;;;5031707;28;20970;-65
2022/09/30 06:00:40;;;;;;;5.77;4.30;;;7.50;99.90;;;;;;5048543;28;20434;-66
2022/09/30 06:03:05;;;;;;;3.70;3.17;;;7.50;99.90;;;;;;5042172;28;20635;-65
2022/09/30 06:05:31;;;;;;;5.03;3.30;;;7.50;99.90;;;;;;5046158;28;20442;-66
2022/09/30 06:07:57;;;;;;;3.20;2.90;;;7.60;99.90;;;;;;5041702;28;20250;-65
2022/09/30 06:10:22;;;;;;;3.47;2.60;;;7.60;99.90;;;;;;5048765;28;20191;-65
2022/09/30 06:12:48;;;;;;;4.23;3.10;;;7.60;99.90;;;;;;5050979;28;20246;-65
2022/09/30 06:15:14;;;;;;;6.60;3.70;;;7.70;99.90;;;;;;5040614;28;20172;-64
2022/09/30 06:17:41;;;;;;;6.10;4.13;;;7.70;99.90;;;;;;5052124;28;20625;-65
2022/09/30 06:20:09;;;;;;;8.20;5.50;;;7.70;99.90;;;;;;5044561;28;20175;-65
2022/09/30 06:22:34;;;;;;;10.23;6.23;;;7.70;99.90;;;;;;5049020;28;20436;-66
2022/09/30 06:25:04;;;;;;;6.97;5.80;;;7.70;99.90;;;;;;5047239;28;20456;-65
2022/09/30 06:27:32;;;;;;;7.73;5.60;;;7.80;99.90;;;;;;5049503;28;20222;-66
2022/09/30 06:29:58;;;;;;;7.33;5.87;;;7.80;99.90;;;;;;5050833;28;21388;-65
2022/09/30 06:32:25;;;;;;;7.70;5.17;;;7.80;99.90;;;;;;5034817;28;20430;-65
2022/09/30 06:34:54;;;;;;;5.13;4.40;;;7.80;99.90;;;;;;5049925;28;20271;-65
2022/09/30 06:37:23;;;;;;;6.00;4.50;;;7.90;99.90;;;;;;5048933;28;20425;-65
2022/09/30 06:39:49;;;;;;;4.70;4.13;;;7.90;99.90;;;;;;5048071;28;20443;-65
2022/09/30 06:42:15;;;;;;;5.40;4.63;;;7.90;99.90;;;;;;5048592;28;20864;-64
2022/09/30 06:44:41;;;;;;;14.10;8.00;;;7.90;99.90;;;;;;5043229;28;20421;-65
2022/09/30 06:47:07;;;;;;;16.00;8.80;;;7.90;99.90;;;;;;5037497;28;20825;-65
2022/09/30 06:49:33;;;;;;;13.87;8.40;;;8.00;99.90;;;;;;5043030;28;20188;-64
2022/09/30 06:52:00;;;;;;;19.83;10.80;;;8.00;99.90;;;;;;5044686;28;20444;-65
2022/09/30 06:54:27;;;;;;;17.60;9.97;;;8.00;99.90;;;;;;5032435;28;20175;-65
2022/09/30 06:56:56;;;;;;;26.50;11.90;;;8.10;99.90;;;;;;5022620;28;20461;-64
2022/09/30 06:59:22;;;;;;;24.93;12.53;;;8.00;99.90;;;;;;5049381;28;20481;-65
2022/09/30 07:01:48;;;;;;;34.50;16.87;;;8.10;99.90;;;;;;5040375;28;20450;-65
2022/09/30 07:04:13;;;;;;;31.37;14.30;;;8.10;99.90;;;;;;5034836;28;20465;-65
2022/09/30 07:06:40;;;;;;;25.13;13.57;;;8.10;99.90;;;;;;5041512;28;20190;-64
2022/09/30 07:09:06;;;;;;;16.30;9.33;;;8.20;99.90;;;;;;5047698;28;20175;-65
2022/09/30 07:11:32;;;;;;;7.70;5.50;;;8.20;99.90;;;;;;5042904;28;20469;-64
2022/09/30 07:13:58;;;;;;;6.30;5.47;;;8.30;99.90;;;;;;5030074;28;20440;-64
2022/09/30 07:16:26;;;;;;;4.70;4.20;;;8.30;99.90;;;;;;5043714;28;20578;-64
2022/09/30 07:18:52;;;;;;;5.03;4.43;;;8.40;99.90;;;;;;5047502;28;20182;-64
2022/09/30 07:21:18;;;;;;;5.80;4.77;;;8.40;99.90;;;;;;5048238;28;20962;-64
2022/09/30 07:23:46;;;;;;;5.83;4.33;;;8.40;99.90;;;;;;5048725;28;20465;-64
2022/09/30 07:26:17;;;;;;;5.33;3.87;;;8.50;99.90;;;;;;5033363;28;20877;-64
2022/09/30 07:28:44;;;;;;;5.33;4.43;;;8.60;99.90;;;;;;5044857;28;20434;-64
2022/09/30 07:31:14;;;;;;;5.47;4.70;;;8.70;99.90;;;;;;5038871;28;20531;-65
2022/09/30 07:33:40;;;;;;;9.00;5.00;;;8.70;99.90;;;;;;5016794;28;20440;-65
2022/09/30 07:36:07;;;;;;;7.07;5.10;;;8.80;99.90;;;;;;5019218;28;20781;-65
2022/09/30 07:38:35;;;;;;;9.57;6.80;;;8.80;99.90;;;;;;5039517;28;20569;-65
2022/09/30 07:41:09;;;;;;;13.90;7.00;;;8.80;99.90;;;;;;5044981;28;20822;-64
2022/09/30 07:43:39;;;;;;;17.77;8.37;;;8.90;99.90;;;;;;5046952;28;20468;-65
2022/09/30 07:46:19;;;;;;;13.70;8.10;;;8.90;99.90;;;;;;5043915;28;20966;-65
2022/09/30 07:48:50;;;;;;;9.00;6.80;;;9.00;99.90;;;;;;5036429;28;20520;-65
2022/09/30 07:51:18;;;;;;;11.30;7.27;;;9.00;99.90;;;;;;5048452;28;20514;-64
2022/09/30 07:53:47;;;;;;;10.73;6.40;;;9.00;99.90;;;;;;5035347;28;20476;-64
2022/09/30 07:56:14;;;;;;;10.60;7.40;;;9.10;99.90;;;;;;5041372;28;20465;-64
2022/09/30 07:58:40;;;;;;;10.30;7.10;;;9.10;99.90;;;;;;5045890;28;20428;-64
2022/09/30 08:01:06;;;;;;;7.33;6.07;;;9.10;99.90;;;;;;5043199;28;20495;-64
2022/09/30 08:03:33;;;;;;;7.50;6.20;;;9.10;99.90;;;;;;5051892;28;20590;-64
2022/09/30 08:06:07;;;;;;;8.33;6.30;;;9.20;99.90;;;;;;5050588;28;20453;-64
2022/09/30 08:08:33;;;;;;;8.00;6.13;;;9.20;99.90;;;;;;5046676;28;20441;-64
2022/09/30 08:10:59;;;;;;;7.50;5.40;;;9.30;99.90;;;;;;5052548;28;20452;-64
2022/09/30 08:13:25;;;;;;;7.63;5.40;;;9.30;99.90;;;;;;5047643;28;20179;-64
2022/09/30 08:15:51;;;;;;;7.10;5.63;;;9.30;99.90;;;;;;5051074;28;20445;-64
2022/09/30 08:18:16;;;;;;;8.50;5.77;;;9.30;99.90;;;;;;5054506;28;20185;-64
2022/09/30 08:20:42;;;;;;;10.83;7.37;;;9.30;99.90;;;;;;5052380;28;20258;-64
2022/09/30 08:23:07;;;;;;;9.77;7.00;;;9.30;99.90;;;;;;5044930;28;20221;-64
2022/09/30 08:25:33;;;;;;;8.83;6.50;;;9.30;99.90;;;;;;5051672;28;20665;-63
2022/09/30 08:27:59;;;;;;;12.27;7.50;;;9.40;99.90;;;;;;5052758;28;20182;-64
2022/09/30 08:30:24;;;;;;;14.33;9.10;;;9.40;99.90;;;;;;5048335;28;20195;-64
2022/09/30 08:32:50;;;;;;;13.43;9.33;;;9.40;99.90;;;;;;5053369;28;20178;-65
2022/09/30 08:35:15;;;;;;;14.70;9.90;;;9.50;99.90;;;;;;5050911;28;20249;-64
2022/09/30 08:37:41;;;;;;;20.73;10.43;;;9.60;99.90;;;;;;5051420;28;20182;-65
2022/09/30 08:40:20;;;;;;;14.20;8.57;;;9.70;99.90;;;;;;5049119;28;20180;-64
2022/09/30 08:43:04;;;;;;;13.13;9.60;;;9.70;99.90;;;;;;5044917;28;20171;-65
2022/09/30 08:45:46;;;;;;;13.73;7.97;;;9.90;99.90;;;;;;5045218;28;20437;-64
2022/09/30 08:48:12;;;;;;;20.90;9.03;;;10.00;99.90;;;;;;5042078;28;20800;-64
2022/09/30 08:51:05;;;;;;;17.73;9.23;;;10.10;99.90;;;;;;5046004;28;20471;-64
2022/09/30 08:53:36;;;;;;;16.73;10.07;;;10.20;99.90;;;;;;5049569;28;20464;-64
2022/09/30 08:56:03;;;;;;;12.23;8.83;;;10.20;99.90;;;;;;5042061;28;20477;-64
2022/09/30 08:58:31;;;;;;;13.47;8.60;;;10.40;99.90;;;;;;5046289;28;20441;-64
2022/09/30 09:01:15;;;;;;;11.53;7.57;;;10.50;99.90;;;;;;5050905;28;20455;-64
2022/09/30 09:03:41;;;;;;;10.60;6.50;;;10.60;99.90;;;;;;5049759;28;20468;-64
2022/09/30 09:06:15;;;;;;;11.03;7.07;;;10.70;99.90;;;;;;5027480;28;20947;-64
2022/09/30 09:09:31;;;;;;;7.40;5.27;;;10.80;99.90;;;;;;5050987;28;20178;-64
2022/09/30 09:12:27;;;;;;;6.07;4.13;;;10.90;99.90;;;;;;5022211;28;20438;-64
2022/09/30 09:14:56;;;;;;;7.50;4.13;;;11.00;99.90;;;;;;5040071;28;20433;-61
2022/09/30 09:17:27;;;;;;;19.33;5.70;;;11.10;99.90;;;;;;5039071;28;20450;-61
2022/09/30 09:20:07;;;;;;;9.13;5.70;;;11.20;99.90;;;;;;5029274;28;20825;-64
2022/09/30 09:22:35;;;;;;;7.43;5.60;;;11.30;99.90;;;;;;5048392;28;20797;-64
2022/09/30 09:25:01;;;;;;;10.00;5.83;;;11.30;99.90;;;;;;5040352;28;20430;-64
2022/09/30 09:27:45;;;;;;;8.33;6.10;;;11.30;99.90;;;;;;5051457;28;20460;-65
2022/09/30 09:30:18;;;;;;;6.93;4.97;;;11.40;99.90;;;;;;5031053;28;21085;-65
2022/09/30 09:32:54;;;;;;;5.37;4.47;;;11.40;99.90;;;;;;5043322;28;20918;-65
2022/09/30 09:35:47;;;;;;;4.80;3.60;;;11.50;99.90;;;;;;5047162;28;20443;-65
2022/09/30 09:38:29;;;;;;;3.60;3.13;;;11.50;99.90;;;;;;5049634;28;21170;-65
2022/09/30 09:41:20;;;;;;;3.97;2.73;;;11.60;99.90;;;;;;5030338;28;20436;-64
2022/09/30 09:43:51;;;;;;;2.70;2.50;;;11.80;99.90;;;;;;5013740;28;21124;-64
2022/09/30 09:46:26;;;;;;;3.40;3.10;;;11.90;99.90;;;;;;5042256;28;20453;-64
2022/09/30 09:49:22;;;;;;;4.63;2.67;;;12.00;99.90;;;;;;5048996;28;20982;-64
2022/09/30 09:52:04;;;;;;;5.23;3.10;;;12.20;99.90;;;;;;5020082;28;20476;-64
2022/09/30 09:54:31;;;;;;;3.03;2.20;;;12.30;99.90;;;;;;5040400;28;20433;-64
2022/09/30 09:57:08;;;;;;;4.00;2.30;;;12.30;99.90;;;;;;5048321;28;20488;-64
2022/09/30 09:59:34;;;;;;;2.87;2.33;;;12.40;99.90;;;;;;5043444;28;20522;-64
2022/09/30 10:02:00;;;;;;;3.47;2.90;;;12.50;99.90;;;;;;5031638;28;20512;-64
2022/09/30 10:04:29;;;;;;;3.07;2.77;;;12.50;99.90;;;;;;5049613;28;20536;-64
2022/09/30 10:07:00;;;;;;;3.00;2.60;;;12.70;99.90;;;;;;5045037;28;20449;-64
2022/09/30 10:09:36;;;;;;;3.30;2.63;;;12.80;99.90;;;;;;5042309;28;20495;-64
2022/09/30 10:12:05;;;;;;;5.20;2.50;;;12.90;99.90;;;;;;5040662;28;20487;-65
2022/09/30 10:14:32;;;;;;;2.53;2.03;;;12.90;99.90;;;;;;5045762;28;20429;-64
2022/09/30 10:17:03;;;;;;;3.77;2.60;;;13.00;99.90;;;;;;5048090;28;20503;-65
2022/09/30 10:19:32;;;;;;;3.20;2.80;;;13.00;99.90;;;;;;5045475;28;20436;-65
2022/09/30 10:22:29;;;;;;;2.67;2.47;;;13.10;99.90;;;;;;5045001;28;21244;-65
2022/09/30 10:25:19;;;;;;;3.73;2.47;;;13.10;99.90;;;;;;5043561;28;20830;-64
2022/09/30 10:27:58;;;;;;;2.50;2.30;;;13.10;99.90;;;;;;5039051;28;20996;-64
2022/09/30 10:30:34;;;;;;;3.10;2.50;;;13.30;99.90;;;;;;5041660;28;20453;-64
2022/09/30 10:33:03;;;;;;;3.10;2.60;;;13.50;99.90;;;;;;5048573;28;20432;-64
2022/09/30 10:35:29;;;;;;;2.63;2.43;;;13.70;99.90;;;;;;5050114;28;20533;-64
2022/09/30 10:37:58;;;;;;;2.77;2.57;;;13.90;99.90;;;;;;5039981;28;20505;-65
2022/09/30 10:40:27;;;;;;;3.80;2.73;;;14.10;97.80;;;;;;5036961;28;20433;-65
2022/09/30 10:42:54;;;;;;;2.60;2.37;;;14.20;96.40;;;;;;5049326;28;20436;-64
2022/09/30 10:45:24;;;;;;;3.23;2.20;;;14.30;94.10;;;;;;5025908;28;20446;-65
2022/09/30 10:47:53;;;;;;;3.03;2.37;;;14.40;91.90;;;;;;5031381;28;20955;-65
2022/09/30 10:50:25;;;;;;;3.47;2.47;;;14.40;92.10;;;;;;5044122;28;20450;-64
2022/09/30 10:53:15;;;;;;;2.37;2.17;;;14.40;91.60;;;;;;5044925;28;21133;-65
2022/09/30 10:55:44;;;;;;;2.80;2.33;;;14.20;92.10;;;;;;5042722;28;20862;-64
2022/09/30 10:58:46;;;;;;;2.50;2.23;;;14.20;93.60;;;;;;5039485;28;20419;-65
2022/09/30 11:01:22;;;;;;;2.23;2.03;;;14.30;94.70;;;;;;5046379;28;20801;-64
2022/09/30 11:03:53;;;;;;;3.00;2.33;;;14.40;95.00;;;;;;5029265;28;20421;-64
2022/09/30 11:06:21;;;;;;;2.87;2.23;;;14.30;93.70;;;;;;5034512;28;20445;-65
2022/09/30 11:09:02;;;;;;;2.57;2.03;;;14.30;92.70;;;;;;5012808;28;20440;-65
2022/09/30 11:11:36;;;;;;;2.10;1.90;;;14.30;94.10;;;;;;5038138;28;21111;-65
2022/09/30 11:14:26;;;;;;;3.20;2.00;;;14.50;93.20;;;;;;5043298;28;20508;-67
2022/09/30 11:17:22;;;;;;;2.60;2.10;;;14.50;87.60;;;;;;5033854;28;20529;-66
2022/09/30 11:20:07;;;;;;;2.43;2.17;;;14.40;85.90;;;;;;5042988;28;20428;-66
2022/09/30 11:22:36;;;;;;;2.13;1.90;;;14.50;90.70;;;;;;5044691;28;20775;-66
2022/09/30 11:25:02;;;;;;;2.70;1.77;;;14.90;90.00;;;;;;5048109;28;20425;-66
2022/09/30 11:27:56;;;;;;;2.33;1.90;;;15.20;82.60;;;;;;5045521;28;20508;-66
2022/09/30 11:30:54;;;;;;;2.20;2.00;;;15.60;75.90;;;;;;5046771;28;20889;-66
2022/09/30 11:33:20;;;;;;;3.80;1.97;;;15.80;71.40;;;;;;5041445;28;20410;-65
2022/09/30 11:35:55;;;;;;;1.47;1.37;;;16.10;70.60;;;;;;5045092;28;20539;-66
2022/09/30 11:38:39;;;;;;;3.37;1.50;;;16.50;69.20;;;;;;5047905;28;20229;-65
2022/09/30 11:41:13;;;;;;;2.20;1.60;;;16.90;68.20;;;;;;5051651;28;20436;-67
2022/09/30 11:44:06;;;;;;;1.83;1.70;;;17.30;58.90;;;;;;5048866;28;20937;-66
2022/09/30 11:46:56;;;;;;;4.40;1.83;;;17.40;57.00;;;;;;5043887;28;20449;-66
2022/09/30 11:50:06;;;;;;;3.13;1.50;;;17.20;58.30;;;;;;5044834;28;20437;-64
2022/09/30 11:52:59;;;;;;;2.70;1.43;;;16.70;57.80;;;;;;5008716;28;20526;-61
2022/09/30 11:55:58;;;;;;;1.60;1.50;;;16.50;59.70;;;;;;5015758;28;20995;-62
2022/09/30 11:58:27;;;;;;;5.33;1.63;;;16.70;62.60;;;;;;5044322;28;20433;-62
2022/09/30 12:00:59;;;;;;;1.70;1.60;;;17.10;63.00;;;;;;5044091;28;20838;-64
2022/09/30 12:03:42;;;;;;;2.60;1.60;;;17.60;63.00;;;;;;5040968;28;21022;-64
2022/09/30 12:06:27;;;;;;;2.03;1.80;;;17.50;58.70;;;;;;5042501;28;20452;-64
2022/09/30 12:08:58;;;;;;;1.93;1.63;;;17.50;59.00;;;;;;5046557;28;20435;-64
2022/09/30 12:11:40;;;;;;;2.07;1.87;;;17.50;59.00;;;;;;5038591;28;20501;-64
2022/09/30 12:14:44;;;;;;;2.33;2.00;;;17.80;59.70;;;;;;5038338;28;20484;-65
2022/09/30 12:17:29;;;;;;;2.80;1.70;;;18.20;56.90;;;;;;5014199;28;20460;-65
2022/09/30 12:19:58;;;;;;;3.77;1.90;;;18.50;55.50;;;;;;5043492;28;20422;-64
2022/09/30 12:22:32;;;;;;;6.83;1.80;;;18.50;54.20;;;;;;5041874;28;20774;-64
2022/09/30 12:27:40;;;;;;;4.23;2.43;;;17.90;54.60;;;;;;5036207;28;20466;-64
2022/09/30 12:30:20;;;;;;;2.57;2.37;;;17.40;55.20;;;;;;5022910;28;20502;-66
2022/09/30 12:33:09;;;;;;;4.03;2.20;;;16.70;55.40;;;;;;5024462;28;20422;-63
2022/09/30 12:36:20;;;;;;;3.00;2.50;;;16.10;56.30;;;;;;5035301;28;20576;-62
2022/09/30 12:39:09;;;;;;;4.47;2.43;;;15.90;58.80;;;;;;5020590;28;20777;-65
2022/09/30 12:41:39;;;;;;;2.90;2.20;;;16.40;59.90;;;;;;5016229;28;20468;-61
2022/09/30 12:44:23;;;;;;;4.23;1.93;;;16.90;58.80;;;;;;5019083;28;20508;-62
2022/09/30 12:47:23;;;;;;;2.33;2.00;;;17.40;58.00;;;;;;5019068;28;20454;-69
2022/09/30 12:49:50;;;;;;;2.30;1.90;;;18.00;56.60;;;;;;5024481;28;20450;-62
2022/09/30 12:52:19;;;;;;;2.80;1.83;;;18.30;54.80;;;;;;5021589;28;20481;-60
2022/09/30 12:54:55;;;;;;;3.00;2.03;;;18.10;53.30;;;;;;5019988;28;20571;-67
2022/09/30 12:57:28;;;;;;;2.60;1.93;;;17.50;53.30;;;;;;5016574;28;20474;-62
2022/09/30 13:00:12;;;;;;;3.33;2.20;;;16.90;54.70;;;;;;5017213;28;20434;-61
2022/09/30 13:02:41;;;;;;;2.03;1.77;;;17.00;56.80;;;;;;5019722;28;20426;-63
2022/09/30 13:05:25;;;;;;;3.60;1.70;;;17.40;57.00;;;;;;5020665;28;20478;-61
2022/09/30 13:08:03;;;;;;;2.80;1.80;;;17.90;56.40;;;;;;5001213;28;20476;-64
2022/09/30 13:10:31;;;;;;;2.27;2.00;;;18.40;55.10;;;;;;5018605;28;20470;-66
2022/09/30 13:13:09;;;;;;;4.87;1.63;;;18.70;53.50;;;;;;5015121;28;20458;-64
2022/09/30 13:15:38;;;;;;;2.30;1.80;;;19.10;52.30;;;;;;5018443;28;20474;-62
2022/09/30 13:18:19;;;;;;;1.87;1.60;;;19.20;51.60;;;;;;5017288;28;21061;-62
2022/09/30 13:20:56;;;;;;;2.60;1.63;;;19.20;50.10;;;;;;5020728;28;20517;-59
2022/09/30 13:23:39;;;;;;;1.93;1.73;;;19.20;50.00;;;;;;5021156;28;20465;-63
2022/09/30 13:26:27;;;;;;;3.00;1.63;;;19.30;50.60;;;;;;5016926;28;20481;-58